Date,TemperatureHighF,TemperatureAvgF,TemperatureLowF,DewpointHighF,DewpointAvgF,DewpointLowF,HumidityHigh,HumidityAvg,HumidityLow,PressureMaxIn,PressureMinIn,WindSpeedMaxMPH,WindSpeedAvgMPH,GustSpeedMaxMPH,PrecipitationSumIn
2013-1-1,27.0,22.9,18.0,18.0,11.8,10.0,73,62,49,30.14,30.02,14,7,20,0.00
2013-1-2,27.0,22.3,16.0,21.0,16.0,10.0,85,76,68,30.14,30.04,10,4,16,0.00
2013-1-3,30.0,25.6,21.0,23.0,19.8,16.0,85,77,68,30.10,29.99,14,8,25,0.00
2013-1-4,34.0,29.1,27.0,25.0,21.3,19.0,86,72,63,30.12,29.92,22,13,31,0.00
2013-1-5,36.0,27.5,14.0,32.0,24.0,12.0,100,87,69,30.22,29.92,13,4,18,0.00
2013-1-6,36.0,34.0,28.0,34.0,30.7,23.0,100,88,69,30.24,29.82,13,7,20,0.00
2013-1-7,37.0,32.2,28.0,27.0,23.8,19.0,92,71,47,30.28,30.05,23,10,31,0.00
2013-1-8,41.0,32.4,27.0,30.0,26.7,23.0,92,78,65,30.18,30.06,10,6,16,0.00
2013-1-9,46.0,38.4,27.0,34.0,28.4,25.0,92,67,42,30.40,29.91,27,12,39,0.00
2013-1-10,45.0,32.3,21.0,34.0,25.7,19.0,100,78,52,30.54,30.16,10,3,0,0.03
2013-1-11,52.0,43.3,36.0,52.0,42.2,34.0,100,96,87,30.16,29.69,15,6,22,0.25
2013-1-12,57.0,48.6,41.0,48.0,40.6,30.0,100,75,47,29.93,29.73,17,8,31,0.00
2013-1-13,41.0,35.1,27.0,36.0,34.1,21.0,100,95,75,30.00,29.79,20,5,27,0.12
2013-1-14,27.0,21.7,12.0,21.0,15.0,10.0,100,76,58,30.39,30.00,17,7,27,0.00
2013-1-15,28.0,18.3,10.0,21.0,14.3,9.0,100,84,63,30.40,30.12,8,2,0,0.00
2013-1-16,36.0,25.9,16.0,30.0,20.8,12.0,100,82,55,30.13,29.69,20,8,30,0.00
2013-1-17,32.0,23.8,16.0,28.0,16.0,5.0,92,72,52,30.31,29.90,16,6,22,0.00
2013-1-18,36.0,20.6,3.0,27.0,14.0,1.0,92,76,59,30.39,29.82,18,7,27,0.00
2013-1-19,43.0,38.4,34.0,36.0,30.8,25.0,100,74,65,29.84,29.46,16,10,25,0.00
2013-1-20,36.0,19.7,12.0,34.0,10.9,3.0,100,68,52,30.15,29.47,27,14,39,0.00
2013-1-21,16.0,10.4,3.0,10.0,4.2,0.0,100,76,56,30.12,29.93,18,9,28,0.00
2013-1-22,9.0,7.6,5.0,7.0,6.1,3.0,100,94,78,30.23,30.20,14,10,22,0.00
2013-1-23,16.0,10.1,1.0,12.0,6.4,0.0,100,85,61,30.24,30.04,12,4,16,0.00
2013-1-24,16.0,9.6,1.0,7.0,2.4,0.0,100,74,48,30.60,30.12,8,2,0,0.00
2013-1-25,21.0,16.3,12.0,18.0,12.1,3.0,92,82,66,30.47,29.98,12,5,9,0.00
2013-1-26,28.0,20.6,9.0,18.0,14.3,5.0,100,77,50,30.40,30.02,10,3,0,0.00
2013-1-27,28.0,22.7,9.0,27.0,17.1,7.0,100,78,63,30.43,30.10,15,6,18,0.02
2013-1-28,39.0,35.1,28.0,39.0,34.0,27.0,100,95,86,30.10,29.80,15,5,18,0.00
2013-1-29,54.0,43.9,34.0,54.0,43.3,32.0,100,98,93,29.99,29.37,12,6,21,0.54
2013-1-30,54.0,41.0,30.0,54.0,40.4,25.0,100,98,80,29.37,29.05,20,6,30,0.19
2013-1-31,30.0,21.2,18.0,25.0,11.0,7.0,85,65,45,29.84,29.21,22,13,31,0.00
2013-2-1,19.0,17.1,12.0,12.0,8.5,3.0,85,69,52,30.16,29.84,17,11,25,0.00
2013-2-2,18.0,13.7,1.0,12.0,7.1,0.0,100,76,52,30.12,29.97,12,4,0,0.00
2013-2-3,21.0,11.8,1.0,12.0,6.8,0.0,100,81,57,30.01,29.81,15,4,23,0.00
2013-2-4,23.0,13.9,3.0,12.0,8.4,0.0,92,79,48,29.98,29.88,6,0,0,0.00
2013-2-5,28.0,17.5,1.0,25.0,12.5,0.0,100,81,62,29.95,29.72,16,6,21,0.00
2013-2-6,30.0,20.7,3.0,19.0,11.5,-99.9,92,72,54,30.25,29.95,13,3,20,0.00
2013-2-7,30.0,27.9,25.0,28.0,24.6,19.0,100,87,73,30.23,29.94,15,8,20,0.05
2013-2-8,30.0,25.7,5.0,28.0,19.9,1.0,100,79,54,30.36,29.89,16,8,23,0.00
2013-2-9,27.0,16.6,1.0,18.0,11.1,0.0,100,79,63,30.43,30.25,8,3,0,0.00
2013-2-10,39.0,21.7,3.0,37.0,17.3,-99.9,100,85,68,30.25,29.60,14,5,21,0.02
2013-2-11,43.0,37.6,34.0,39.0,31.8,27.0,100,80,65,29.78,29.45,24,15,39,0.00
2013-2-12,34.0,29.8,27.0,27.0,22.3,19.0,80,73,68,29.99,29.77,20,10,25,0.00
2013-2-13,34.0,30.2,27.0,27.0,24.7,19.0,86,79,73,29.89,29.71,12,6,18,0.00
2013-2-14,39.0,33.6,30.0,34.0,30.5,25.0,100,87,75,29.81,29.58,21,6,29,0.00
2013-2-15,30.0,25.2,18.0,25.0,16.2,12.0,80,69,50,30.11,29.81,18,8,29,0.00
2013-2-16,23.0,16.8,10.0,18.0,12.8,9.0,92,84,57,30.09,29.99,7,1,0,0.00
2013-2-17,25.0,14.9,1.0,9.0,5.3,0.0,100,66,45,30.19,30.09,13,2,17,0.00
2013-2-18,41.0,29.8,10.0,37.0,19.3,7.0,93,64,51,30.15,29.49,15,9,24,0.00
2013-2-19,43.0,30.9,19.0,39.0,25.5,7.0,93,80,62,29.87,29.30,27,15,36,0.01
2013-2-20,21.0,19.2,16.0,16.0,10.5,7.0,79,68,57,30.23,29.86,18,11,27,0.00
2013-2-21,23.0,19.4,18.0,21.0,12.4,9.0,92,74,62,30.39,30.22,13,8,22,0.00
2013-2-22,30.0,26.1,21.0,30.0,23.5,18.0,100,90,73,30.29,29.82,18,8,24,0.00
2013-2-23,34.0,30.3,27.0,32.0,26.1,21.0,100,83,59,29.87,29.80,14,9,22,0.00
2013-2-24,37.0,31.1,27.0,28.0,23.9,21.0,92,76,51,30.13,29.84,13,5,20,0.00
2013-2-25,34.0,28.5,27.0,25.0,23.4,21.0,86,80,64,30.16,30.11,6,2,0,0.00
2013-2-26,36.0,31.4,25.0,34.0,26.0,19.0,100,81,73,30.14,29.60,28,15,38,0.00
2013-2-27,36.0,34.8,34.0,34.0,33.9,32.0,100,97,93,29.60,29.51,20,10,30,0.00
2013-2-28,36.0,33.9,30.0,34.0,28.4,21.0,100,81,68,29.99,29.58,15,8,21,0.00
2013-3-1,30.0,27.0,23.0,21.0,18.5,16.0,79,69,59,30.14,29.99,12,7,17,0.00
2013-3-2,27.0,23.0,18.0,18.0,16.3,14.0,92,74,63,30.13,30.07,13,6,16,0.00
2013-3-3,30.0,20.5,7.0,18.0,12.7,3.0,92,72,54,30.07,29.97,13,5,17,0.00
2013-3-4,36.0,20.9,7.0,19.0,12.7,3.0,92,73,37,30.14,30.06,9,2,0,0.00
2013-3-5,30.0,22.7,10.0,27.0,19.0,9.0,100,85,68,30.14,29.92,20,7,25,0.00
2013-3-6,37.0,33.3,30.0,30.0,28.5,27.0,92,82,69,30.21,29.95,14,6,21,0.00
2013-3-7,36.0,31.1,21.0,30.0,22.8,18.0,92,72,51,30.41,30.20,12,5,20,0.00
2013-3-8,39.0,28.5,16.0,27.0,21.1,14.0,100,74,48,30.50,30.39,10,2,0,0.00
2013-3-9,43.0,33.5,21.0,34.0,26.9,21.0,100,78,56,30.40,30.02,13,4,21,0.01
2013-3-10,48.0,41.4,34.0,43.0,36.7,32.0,100,84,70,30.02,29.77,14,3,0,0.04
2013-3-11,48.0,44.7,37.0,48.0,42.8,34.0,100,92,80,29.78,29.43,18,6,29,0.21
2013-3-12,37.0,33.7,28.0,36.0,28.7,23.0,93,82,64,29.85,29.57,18,10,24,0.00
2013-3-13,34.0,28.5,25.0,25.0,17.6,10.0,92,65,40,30.17,29.84,21,11,33,0.00
2013-3-14,39.0,30.6,19.0,21.0,17.9,14.0,92,60,38,30.23,30.03,13,6,17,0.00
2013-3-15,43.0,35.7,30.0,30.0,26.1,19.0,80,68,44,30.03,29.84,16,8,23,0.00
2013-3-16,32.0,27.0,23.0,27.0,22.6,19.0,92,83,74,30.03,29.82,15,6,22,0.00
2013-3-17,27.0,21.9,16.0,21.0,12.4,5.0,92,66,45,30.31,30.03,13,7,16,0.00
2013-3-18,34.0,26.9,18.0,32.0,22.5,12.0,100,83,68,30.22,29.53,16,8,22,0.03
2013-3-19,34.0,26.7,23.0,32.0,19.4,12.0,93,74,58,29.86,29.52,25,14,35,0.00
2013-3-20,28.0,23.3,18.0,16.0,12.2,10.0,78,63,46,29.90,29.84,17,10,25,0.00
2013-3-21,32.0,25.8,18.0,21.0,18.1,12.0,85,72,59,29.91,29.81,18,10,24,0.00
2013-3-22,37.0,30.4,27.0,25.0,21.0,18.0,80,67,55,30.02,29.90,14,8,21,0.00
2013-3-23,39.0,31.9,27.0,27.0,24.1,21.0,92,72,55,30.11,30.02,9,3,0,0.00
2013-3-24,37.0,30.5,21.0,28.0,24.8,21.0,100,80,55,30.06,29.73,21,8,31,0.00
2013-3-25,41.0,35.3,30.0,28.0,26.8,25.0,86,71,52,29.94,29.68,12,8,24,0.00
2013-3-26,45.0,37.6,32.0,34.0,28.0,23.0,86,69,52,30.10,29.94,14,8,21,0.00
2013-3-27,48.0,38.6,30.0,28.0,26.0,23.0,80,61,42,30.19,30.09,17,10,25,0.00
2013-3-28,54.0,40.0,28.0,27.0,24.6,21.0,86,57,31,30.26,30.19,14,6,20,0.00
2013-3-29,54.0,38.0,23.0,27.0,22.8,19.0,100,59,29,30.27,30.18,12,2,23,0.00
2013-3-30,54.0,39.5,21.0,30.0,24.2,21.0,100,59,27,30.21,29.87,15,4,23,0.00
2013-3-31,55.0,45.8,36.0,43.0,35.1,-99.9,87,70,50,29.87,29.59,22,9,28,0.00
2013-4-1,36.0,29.8,27.0,28.0,15.8,10.0,74,55,40,30.07,29.70,22,12,30,0.00
2013-4-2,39.0,29.9,19.0,19.0,14.7,10.0,92,56,30,30.22,30.07,17,8,25,0.00
2013-4-3,43.0,30.9,18.0,21.0,16.3,12.0,92,57,30,30.42,30.22,17,5,27,0.00
2013-4-4,55.0,41.5,27.0,30.0,22.3,18.0,74,48,29,30.32,29.90,20,9,28,0.00
2013-4-5,46.0,37.1,28.0,32.0,23.0,16.0,86,59,28,30.21,29.95,16,6,20,0.00
2013-4-6,52.0,39.3,28.0,28.0,23.1,19.0,86,54,32,30.22,29.68,21,9,28,0.00
2013-4-7,55.0,46.4,39.0,48.0,35.6,27.0,87,67,37,30.04,29.50,27,11,33,0.00
2013-4-8,46.0,38.4,28.0,43.0,36.0,27.0,100,91,65,30.04,29.67,13,5,17,0.26
2013-4-9,43.0,39.8,36.0,41.0,38.6,36.0,100,96,93,30.09,29.91,12,4,17,0.49
2013-4-10,39.0,37.8,37.0,37.0,35.9,30.0,100,92,74,30.07,29.94,17,10,25,0.03
2013-4-11,37.0,34.9,34.0,34.0,32.3,30.0,100,91,74,30.05,29.73,32,17,47,0.35
2013-4-12,43.0,36.5,34.0,37.0,34.7,32.0,100,93,75,29.75,29.55,16,7,25,0.20
2013-4-13,41.0,37.1,36.0,36.0,30.9,25.0,93,78,60,29.94,29.71,22,10,30,0.00
2013-4-14,45.0,37.3,27.0,36.0,30.7,27.0,100,78,52,30.09,29.92,15,5,18,0.00
2013-4-15,66.0,51.7,36.0,57.0,44.9,32.0,100,78,62,29.92,29.81,21,9,29,0.06
2013-4-16,57.0,49.9,43.0,54.0,38.5,30.0,100,67,40,30.27,29.88,17,8,27,0.24
2013-4-17,46.0,41.0,37.0,41.0,35.7,30.0,100,81,60,30.38,30.07,18,8,28,0.10
2013-4-18,63.0,52.5,43.0,61.0,50.9,41.0,100,94,82,30.08,29.44,18,7,29,0.43
2013-4-19,63.0,43.6,34.0,59.0,36.8,25.0,93,77,60,29.68,29.34,29,17,43,0.11
2013-4-20,39.0,33.0,27.0,28.0,19.7,18.0,80,58,44,30.43,29.68,17,10,28,0.00
2013-4-21,50.0,36.0,21.0,36.0,24.1,18.0,100,64,37,30.62,30.43,13,5,21,0.00
2013-4-22,63.0,47.1,28.0,37.0,30.2,25.0,92,54,29,30.45,30.17,12,6,17,0.00
2013-4-23,63.0,50.7,39.0,54.0,42.1,30.0,100,73,46,30.17,29.80,20,5,24,0.08
2013-4-24,48.0,40.6,36.0,37.0,30.1,21.0,100,68,36,30.07,29.85,15,9,23,0.04
2013-4-25,52.0,41.3,34.0,39.0,30.0,23.0,93,66,37,30.31,30.02,18,8,31,0.00
2013-4-26,61.0,46.5,28.0,37.0,32.3,27.0,100,62,36,30.41,30.26,18,7,25,0.00
2013-4-27,72.0,58.7,43.0,45.0,39.3,36.0,81,51,28,30.29,30.10,13,6,18,0.00
2013-4-28,66.0,55.0,43.0,54.0,45.5,36.0,93,71,44,30.09,29.85,15,5,18,0.00
2013-4-29,72.0,62.4,54.0,54.0,52.8,50.0,100,73,46,29.91,29.84,10,4,10,0.00
2013-4-30,73.0,64.2,57.0,57.0,55.2,52.0,100,73,56,30.01,29.88,21,9,30,0.07
2013-5-1,84.0,72.7,61.0,57.0,55.0,52.0,82,56,32,30.21,30.00,15,8,23,0.00
2013-5-2,81.0,70.5,57.0,55.0,53.1,48.0,87,55,39,30.25,30.09,15,7,21,0.00
2013-5-3,81.0,68.9,55.0,55.0,47.4,34.0,71,47,26,30.14,30.04,20,8,28,0.00
2013-5-4,73.0,64.0,52.0,48.0,43.6,37.0,71,49,28,30.13,30.06,17,8,25,0.00
2013-5-5,75.0,60.5,46.0,48.0,43.6,37.0,93,58,25,30.12,30.04,16,6,20,0.00
2013-5-6,75.0,59.4,41.0,48.0,40.8,34.0,100,58,22,30.09,29.99,14,4,20,0.00
2013-5-7,77.0,61.3,43.0,48.0,43.5,37.0,100,58,27,30.09,30.01,15,5,20,0.00
2013-5-8,81.0,64.0,46.0,46.0,44.3,39.0,93,54,25,30.04,29.95,12,3,18,0.00
2013-5-9,81.0,64.3,46.0,54.0,47.6,45.0,100,60,28,29.98,29.87,14,3,21,0.00
2013-5-10,59.0,45.3,41.0,50.0,40.5,-99.9,100,88,67,29.92,29.86,18,8,25,0.22
2013-5-11,59.0,45.2,37.0,50.0,40.3,34.0,100,83,62,29.91,29.68,23,7,37,0.02
2013-5-12,46.0,39.2,34.0,34.0,28.4,-99.9,86,67,52,30.09,29.81,24,13,37,0.00
2013-5-13,55.0,42.5,28.0,39.0,27.3,25.0,86,58,30,30.15,30.07,15,6,21,0.00
2013-5-14,66.0,54.1,43.0,48.0,38.4,30.0,81,55,41,30.07,29.69,14,6,18,0.00
2013-5-15,79.0,66.2,54.0,54.0,46.9,37.0,87,54,23,29.80,29.50,20,9,28,0.01
2013-5-16,79.0,55.2,45.0,48.0,33.7,-99.9,100,64,23,30.07,29.79,16,5,22,0.00
2013-5-17,63.0,51.3,39.0,48.0,41.3,-99.9,100,75,48,30.19,30.07,12,4,17,0.00
2013-5-18,72.0,60.1,52.0,50.0,46.9,46.0,87,64,40,30.19,30.05,14,7,20,0.00
2013-5-19,86.0,67.9,48.0,61.0,53.4,46.0,100,64,37,30.05,29.86,12,3,0,0.00
2013-5-20,90.0,73.2,64.0,70.0,64.3,57.0,100,75,43,29.90,29.74,25,6,41,0.25
2013-5-21,79.0,70.8,64.0,66.0,64.2,63.0,100,81,57,29.81,29.70,14,6,20,0.03
2013-5-22,70.0,64.7,57.0,66.0,63.2,57.0,100,95,77,29.72,29.61,15,4,28,0.68
2013-5-23,57.0,50.4,43.0,57.0,48.9,39.0,100,94,81,30.18,29.65,13,6,22,0.45
2013-5-24,57.0,45.1,36.0,45.0,37.2,30.0,100,75,46,30.38,30.18,12,5,20,0.00
2013-5-25,64.0,49.5,36.0,45.0,39.1,36.0,100,71,36,30.42,30.29,14,3,16,0.00
2013-5-26,64.0,51.8,36.0,45.0,40.2,36.0,100,68,39,30.37,30.25,12,4,17,0.00
2013-5-27,70.0,55.1,37.0,48.0,41.0,34.0,100,64,31,30.27,30.02,14,5,20,0.00
2013-5-28,73.0,60.8,52.0,70.0,58.2,46.0,100,92,71,30.02,29.76,12,6,17,0.34
2013-5-29,81.0,70.1,64.0,70.0,65.3,63.0,100,86,61,29.97,29.76,14,6,22,0.07
2013-5-30,88.0,75.2,63.0,72.0,66.2,63.0,100,75,48,30.01,29.91,21,6,27,0.02
2013-5-31,81.0,75.4,70.0,66.0,64.5,63.0,88,70,57,29.95,29.81,18,9,25,0.02
2013-6-1,82.0,73.6,68.0,66.0,63.9,61.0,88,72,50,29.83,29.66,18,9,30,0.00
2013-6-2,70.0,58.9,45.0,64.0,52.5,39.0,100,79,62,30.02,29.61,18,9,29,0.01
2013-6-3,70.0,52.4,36.0,46.0,39.8,36.0,100,67,32,30.09,29.99,14,4,27,0.00
2013-6-4,70.0,56.0,39.0,48.0,41.0,36.0,100,62,34,30.21,30.09,9,3,0,0.00
2013-6-5,68.0,59.1,54.0,48.0,43.4,37.0,76,56,37,30.22,30.06,14,6,22,0.00
2013-6-6,64.0,58.9,54.0,52.0,47.3,43.0,82,66,48,30.06,29.93,16,8,22,0.00
2013-6-7,66.0,56.6,46.0,54.0,49.3,45.0,100,78,51,29.95,29.90,15,6,22,0.00
2013-6-8,72.0,59.0,45.0,55.0,51.1,45.0,100,77,46,30.08,29.92,10,1,0,0.00
2013-6-9,79.0,64.8,46.0,59.0,53.6,46.0,100,71,47,30.12,29.97,15,6,23,0.00
2013-6-10,68.0,64.0,61.0,64.0,60.9,54.0,100,90,63,29.97,29.78,12,4,0,0.02
2013-6-11,82.0,71.1,63.0,66.0,63.3,61.0,100,78,51,29.88,29.79,13,4,17,0.00
2013-6-12,79.0,68.2,59.0,66.0,62.6,57.0,100,84,57,29.91,29.68,13,4,17,0.00
2013-6-13,79.0,67.9,59.0,64.0,58.5,54.0,100,74,44,29.96,29.67,13,6,21,0.07
2013-6-14,77.0,63.4,54.0,55.0,51.8,45.0,100,69,31,30.11,29.96,10,4,0,0.00
2013-6-15,79.0,64.3,46.0,63.0,54.4,46.0,100,72,43,30.07,29.88,12,3,17,0.00
2013-6-16,82.0,72.2,64.0,66.0,60.4,50.0,100,70,34,29.88,29.74,17,7,29,0.19
2013-6-17,75.0,64.5,57.0,64.0,58.0,54.0,100,80,57,29.99,29.85,16,4,22,0.05
2013-6-18,68.0,60.0,46.0,54.0,47.3,41.0,100,65,37,30.11,29.96,18,9,24,0.00
2013-6-19,73.0,58.8,39.0,52.0,45.6,39.0,100,67,35,30.20,30.11,9,3,0,0.00
2013-6-20,81.0,63.2,48.0,55.0,50.7,46.0,100,68,34,30.20,30.14,7,2,0,0.00
2013-6-21,84.0,80.0,66.0,61.0,60.2,57.0,72,51,45,30.18,30.02,15,11,23,0.00
2013-6-22,88.0,81.0,68.0,72.0,67.3,64.0,88,64,45,30.06,29.95,9,5,0,0.00
2013-6-23,91.0,75.2,61.0,72.0,65.6,61.0,100,75,43,30.05,29.91,16,5,22,0.00
2013-6-24,84.0,73.0,70.0,68.0,66.3,64.0,88,81,51,30.01,29.92,12,2,18,0.00
2013-6-25,81.0,75.7,70.0,66.0,65.4,64.0,88,73,57,29.91,29.82,12,5,0,0.00
2013-6-26,88.0,81.3,64.0,70.0,66.8,64.0,100,62,48,29.85,29.75,8,5,0,0.00
2013-6-27,82.0,71.7,68.0,72.0,69.3,66.0,100,92,69,29.77,29.67,7,2,0,0.03
2013-6-28,66.0,65.0,64.0,66.0,64.6,63.0,100,98,93,29.61,29.59,5,2,0,0.00
2013-6-29,72.0,66.7,61.0,63.0,61.3,59.0,100,82,64,29.78,29.58,8,2,0,0.00
2013-6-30,77.0,66.0,54.0,63.0,56.5,45.0,100,73,40,30.01,29.77,14,4,20,0.02
2013-7-1,70.0,55.3,48.0,54.0,48.6,43.0,100,80,43,30.13,30.00,10,3,17,0.01
2013-7-2,70.0,65.4,57.0,54.0,49.6,46.0,87,58,45,30.12,30.08,12,8,0,0.00
2013-7-3,79.0,69.0,55.0,68.0,61.6,54.0,100,79,61,30.11,30.05,14,6,17,0.00
2013-7-4,81.0,73.9,61.0,66.0,62.4,61.0,100,68,54,30.12,30.06,13,5,17,0.00
2013-7-5,84.0,67.3,63.0,66.0,63.4,61.0,100,89,51,30.10,30.03,9,1,0,0.00
2013-7-6,88.0,80.8,63.0,70.0,66.1,63.0,100,62,45,30.09,29.97,10,4,0,0.00
2013-7-7,82.0,74.7,70.0,73.0,69.5,66.0,100,84,61,30.02,29.94,10,3,0,0.00
2013-7-8,75.0,71.0,72.0,73.0,67.3,-99.9,100,94,88,30.00,29.95,8,1,0,0.00
2013-7-9,82.0,74.5,68.0,75.0,71.3,68.0,100,90,69,29.98,29.84,3,0,0,0.08
2013-7-10,77.0,68.9,68.0,73.0,53.3,-99.9,100,70,47,29.91,29.76,9,7,20,0.00
2013-7-11,75.0,62.1,54.0,61.0,57.1,54.0,100,85,60,30.08,29.99,12,4,0,0.00
2013-7-12,79.0,64.0,52.0,63.0,57.8,52.0,100,82,47,30.18,30.11,7,2,0,0.00
2013-7-13,84.0,76.2,57.0,63.0,60.6,55.0,100,60,37,30.23,30.17,10,4,0,0.00
2013-7-14,90.0,76.0,59.0,72.0,65.3,59.0,100,72,43,30.28,30.22,9,3,0,0.00
2013-7-15,90.0,73.3,70.0,73.0,70.3,68.0,100,91,55,30.31,30.24,5,0,0,0.00
2013-7-16,91.0,83.0,73.0,73.0,72.7,72.0,94,72,55,30.29,30.22,7,4,0,0.00
2013-7-17,88.0,74.5,72.0,75.0,71.4,70.0,100,91,66,30.26,30.14,5,1,0,0.00
2013-7-18,95.0,80.8,70.0,73.0,71.3,70.0,100,76,44,30.14,29.90,12,4,20,0.00
2013-7-19,90.0,82.8,79.0,73.0,72.3,72.0,78,71,55,29.87,29.68,10,9,21,0.00
2013-7-20,84.0,72.9,63.0,66.0,59.6,-99.9,100,67,39,29.97,29.77,17,5,25,0.00
2013-7-21,81.0,66.9,52.0,61.0,54.1,48.0,100,67,34,30.04,29.95,9,2,0,0.00
2013-7-22,82.0,66.6,63.0,64.0,61.7,57.0,100,85,51,29.98,29.74,10,5,0,0.02
2013-7-23,72.0,66.6,63.0,64.0,55.6,50.0,78,69,63,29.85,29.69,9,7,28,0.00
2013-7-24,72.0,65.0,46.0,52.0,48.6,46.0,100,57,46,30.06,29.96,10,4,0,0.00
2013-7-25,77.0,71.2,48.0,52.0,51.3,48.0,100,52,41,30.07,30.05,7,6,0,0.00
2013-7-26,70.0,64.7,57.0,66.0,60.8,54.0,100,87,72,30.06,29.91,8,2,0,0.02
2013-7-27,77.0,66.2,57.0,63.0,57.2,52.0,93,72,53,29.84,29.74,20,9,27,0.00
2013-7-28,70.0,58.9,52.0,55.0,51.9,48.0,93,77,56,29.94,29.80,16,6,20,0.00
2013-7-29,72.0,57.6,55.0,57.0,55.0,55.0,100,92,56,30.13,29.92,8,6,0,0.01
2013-7-30,73.0,64.2,48.0,61.0,54.8,48.0,100,74,56,30.23,30.13,8,3,0,0.00
2013-7-31,66.0,64.2,63.0,64.0,62.2,59.0,100,93,88,30.11,29.92,3,0,0,0.01
2013-8-1,79.0,72.2,61.0,64.0,56.7,54.0,100,61,41,29.91,29.87,15,7,23,0.00
2013-8-2,75.0,62.1,54.0,64.0,58.3,52.0,100,88,64,29.91,29.84,15,4,17,0.08
2013-8-3,79.0,68.3,52.0,61.0,54.7,52.0,100,64,44,30.08,29.92,16,6,21,0.00
2013-8-4,73.0,61.4,48.0,55.0,52.9,48.0,100,76,43,30.19,30.08,9,3,0,0.00
2013-8-5,70.0,58.1,52.0,57.0,54.2,52.0,100,87,60,30.11,29.97,8,1,0,0.00
2013-8-6,77.0,63.2,64.0,66.0,44.8,-99.9,82,66,69,29.92,29.85,7,5,0,0.03
2013-8-7,84.0,70.4,64.0,66.0,64.7,63.0,100,84,51,29.87,29.78,9,4,0,0.00
2013-8-8,73.0,63.6,54.0,59.0,54.3,52.0,100,74,49,30.05,29.97,12,3,0,0.00
2013-8-9,77.0,63.4,52.0,61.0,56.1,52.0,100,79,50,30.02,29.93,10,3,0,0.00
2013-8-10,77.0,71.1,52.0,59.0,53.6,50.0,100,54,43,30.16,30.03,9,3,0,0.00
2013-8-11,77.0,64.3,52.0,61.0,55.5,52.0,100,77,44,30.13,30.04,8,2,0,0.00